createdAt,value
2022-12-11T00:01:14.502Z,100992.94
2022-12-11T00:03:42.898Z,100990.72
2022-12-11T00:06:14.281Z,100989.75
2022-12-11T00:08:43.167Z,100987.91
2022-12-11T00:11:16.486Z,100992.47
2022-12-11T00:13:45.317Z,100989.09
2022-12-11T00:16:15.629Z,100990.19
2022-12-11T00:18:44.509Z,100987.41
2022-12-11T00:21:14.460Z,100981.34
2022-12-11T00:23:42.941Z,100994.78
2022-12-11T00:26:16.099Z,100991.06
2022-12-11T00:28:45.229Z,100990.13
2022-12-11T00:31:18.697Z,100983.25
2022-12-11T00:33:50.614Z,100994.38
2022-12-11T00:36:21.930Z,100988.44
2022-12-11T00:38:51.286Z,100986.41
2022-12-11T00:41:20.407Z,100986.63
2022-12-11T00:43:48.918Z,100989.19
2022-12-11T00:46:17.644Z,100986.25
2022-12-11T00:48:46.378Z,100981.03
2022-12-11T00:51:14.833Z,100984.47
2022-12-11T00:53:44.102Z,100989.66
2022-12-11T00:56:15.111Z,100981.75
2022-12-11T00:58:43.805Z,100989.63
2022-12-11T01:01:15.450Z,100991.88
2022-12-11T01:03:43.851Z,100983.63
2022-12-11T01:06:15.083Z,100981.47
2022-12-11T01:08:45.065Z,100977.97
2022-12-11T01:11:16.480Z,100985.47
2022-12-11T01:13:45.383Z,100985.91
2022-12-11T01:16:16.015Z,100988.41
2022-12-11T01:18:44.528Z,100984.78
2022-12-11T01:21:13.979Z,100989.66
2022-12-11T01:23:42.377Z,100982.81
2022-12-11T01:26:13.120Z,100983.63
2022-12-11T01:28:42.465Z,100988.34
2022-12-11T01:31:13.040Z,100982.75
2022-12-11T01:33:41.527Z,100990.66
2022-12-11T01:36:12.846Z,100987.56
2022-12-11T01:38:41.364Z,100982.09
2022-12-11T01:41:10.391Z,100984.25
2022-12-11T01:44:06.872Z,100982.88
2022-12-11T01:46:37.246Z,100983.34
2022-12-11T01:49:13.902Z,100985.13
2022-12-11T01:51:53.043Z,100974.97
2022-12-11T01:54:23.942Z,100970.88
2022-12-11T01:56:54.493Z,100973.53
2022-12-11T01:59:26.586Z,100973.81
2022-12-11T02:02:10.988Z,100973.38
2022-12-11T02:04:40.698Z,100979.53
2022-12-11T02:07:10.198Z,100976.31
2022-12-11T02:09:42.680Z,100981.81
2022-12-11T02:12:30.809Z,100972.59
2022-12-11T02:15:13.221Z,100975.13
2022-12-11T02:17:54.569Z,100973.09
2022-12-11T02:20:41.968Z,100974.69
2022-12-11T02:23:13.158Z,100974.53
2022-12-11T02:26:13.606Z,100974.84
2022-12-11T02:28:55.801Z,100968.22
2022-12-11T02:31:38.673Z,100969.78
2022-12-11T02:34:26.246Z,100970.63
2022-12-11T02:36:59.311Z,100961.75
2022-12-11T02:39:29.471Z,100961.13
2022-12-11T02:41:58.992Z,100955.94
2022-12-11T02:44:32.879Z,100960.75
2022-12-11T02:47:04.624Z,100960.91
2022-12-11T02:49:34.002Z,100960.03
2022-12-11T02:52:04.770Z,100965.38
2022-12-11T02:54:38.061Z,100963.53
2022-12-11T02:57:11.899Z,100971.56
2022-12-11T02:59:43.676Z,100963.34
2022-12-11T03:02:17.001Z,100963.09
2022-12-11T03:04:46.563Z,100960.97
2022-12-11T03:07:23.532Z,100956.88
2022-12-11T03:09:52.734Z,100961.38
2022-12-11T03:12:29.817Z,100949.81
2022-12-11T03:15:00.966Z,100952.34
2022-12-11T03:18:00.907Z,100942.56
2022-12-11T03:20:45.007Z,100941.63
2022-12-11T03:23:32.344Z,100940.72
2022-12-11T03:26:06.608Z,100936.78
2022-12-11T03:28:43.989Z,100941.09
2022-12-11T03:31:27.445Z,100939.22
2022-12-11T03:34:00.951Z,100935.59
2022-12-11T03:36:36.572Z,100937.25
2022-12-11T03:39:20.718Z,100939.63
2022-12-11T03:41:50.781Z,100937.09
2022-12-11T03:44:21.399Z,100940.00
2022-12-11T03:46:52.660Z,100931.22
2022-12-11T03:49:26.620Z,100936.22
2022-12-11T03:51:58.012Z,100928.66
2022-12-11T03:54:27.564Z,100919.09
2022-12-11T03:56:58.254Z,100915.13
2022-12-11T03:59:26.854Z,100911.63
2022-12-11T04:01:55.313Z,100908.00
2022-12-11T04:04:23.811Z,100910.03
2022-12-11T04:06:52.179Z,100919.69
2022-12-11T04:09:20.579Z,100922.28
2022-12-11T04:11:48.961Z,100920.47
2022-12-11T04:14:36.022Z,100915.69
2022-12-11T04:17:05.437Z,100918.91
2022-12-11T04:19:52.266Z,100919.25
2022-12-11T04:22:38.997Z,100920.22
2022-12-11T04:25:08.577Z,100922.72
2022-12-11T04:27:49.271Z,100927.63
2022-12-11T04:30:23.746Z,100919.16
2022-12-11T04:32:53.798Z,100925.78
2022-12-11T04:35:22.909Z,100913.47
2022-12-11T04:37:52.721Z,100907.50
2022-12-11T04:40:21.242Z,100913.84
2022-12-11T04:42:49.800Z,100916.56
2022-12-11T04:45:18.334Z,100917.22
2022-12-11T04:47:46.789Z,100916.59
2022-12-11T04:50:16.055Z,100914.28
2022-12-11T04:52:44.717Z,100913.47
2022-12-11T04:55:13.557Z,100904.16
2022-12-11T04:57:42.211Z,100912.81
2022-12-11T05:00:11.883Z,100902.72
2022-12-11T05:02:41.685Z,100901.34
2022-12-11T05:05:11.783Z,100901.38
2022-12-11T05:07:41.067Z,100904.34
2022-12-11T05:10:09.754Z,100905.72
2022-12-11T05:12:38.284Z,100906.72
2022-12-11T05:15:07.253Z,100905.69
2022-12-11T05:17:35.615Z,100900.25
2022-12-11T05:20:04.280Z,100893.13
2022-12-11T05:22:32.724Z,100897.97
2022-12-11T05:25:01.179Z,100898.78
2022-12-11T05:27:29.746Z,100895.31
2022-12-11T05:29:59.728Z,100899.94
2022-12-11T05:32:28.784Z,100898.50
2022-12-11T05:34:57.339Z,100890.63
2022-12-11T05:37:25.750Z,100885.50
2022-12-11T05:39:54.210Z,100888.03
2022-12-11T05:42:27.138Z,100887.72
2022-12-11T05:44:57.343Z,100890.72
2022-12-11T05:47:25.827Z,100900.84
2022-12-11T05:49:54.276Z,100891.03
2022-12-11T05:52:22.902Z,100900.63
2022-12-11T05:54:51.289Z,100895.69
2022-12-11T05:57:19.713Z,100897.66
2022-12-11T05:59:48.129Z,100895.69
2022-12-11T06:02:16.680Z,100902.06
2022-12-11T06:04:45.200Z,100909.97
2022-12-11T06:07:13.883Z,100904.22
2022-12-11T06:09:42.342Z,100898.63
2022-12-11T06:12:10.681Z,100906.78
2022-12-11T06:14:39.134Z,100894.97
2022-12-11T06:17:07.563Z,100899.88
2022-12-11T06:19:37.105Z,100902.16
2022-12-11T06:22:05.625Z,100901.88
2022-12-11T06:24:34.026Z,100898.34
2022-12-11T06:27:02.441Z,100896.25
2022-12-11T06:29:30.874Z,100903.81
2022-12-11T06:31:59.351Z,100893.56
2022-12-11T06:34:28.034Z,100893.16
2022-12-11T06:36:56.519Z,100900.72
2022-12-11T06:39:24.975Z,100901.25
2022-12-11T06:41:54.235Z,100903.66
2022-12-11T06:44:22.706Z,100890.88
2022-12-11T06:46:51.137Z,100899.34
2022-12-11T06:49:19.589Z,100888.81
2022-12-11T06:51:48.022Z,100883.75
2022-12-11T06:54:16.534Z,100884.88
2022-12-11T06:56:45.066Z,100893.00
2022-12-11T06:59:13.456Z,100890.31
2022-12-11T07:01:41.916Z,100892.88
2022-12-11T07:04:10.322Z,100901.59
2022-12-11T07:06:39.748Z,100899.47
2022-12-11T07:09:08.360Z,100900.56
2022-12-11T07:11:36.721Z,100903.25
2022-12-11T07:14:06.150Z,100909.28
2022-12-11T07:16:34.660Z,100914.59
2022-12-11T07:19:03.261Z,100913.47
2022-12-11T07:21:32.197Z,100904.63
2022-12-11T07:24:00.902Z,100910.41
2022-12-11T07:26:29.747Z,100912.91
2022-12-11T07:28:59.431Z,100918.41
2022-12-11T07:31:29.578Z,100927.09
2022-12-11T07:34:01.060Z,100919.63
2022-12-11T07:36:29.821Z,100918.53
2022-12-11T07:38:59.631Z,100924.41
2022-12-11T07:41:28.784Z,100925.09
2022-12-11T07:43:59.537Z,100916.44
2022-12-11T07:46:29.999Z,100919.38
2022-12-11T07:49:00.831Z,100926.75
2022-12-11T07:51:35.549Z,100912.81
2022-12-11T07:54:10.674Z,100916.00
2022-12-11T07:56:41.914Z,100903.53
2022-12-11T07:59:12.877Z,100911.03
2022-12-11T08:01:42.520Z,100912.66
2022-12-11T08:04:12.141Z,100911.38
2022-12-11T08:06:42.598Z,100916.22
2022-12-11T08:09:20.390Z,100913.66
2022-12-11T08:11:50.659Z,100919.69
2022-12-11T08:14:20.306Z,100910.03
2022-12-11T08:16:48.960Z,100919.19
2022-12-11T08:19:18.020Z,100908.50
2022-12-11T08:21:46.880Z,100904.84
2022-12-11T08:24:20.147Z,100914.72
2022-12-11T08:26:48.828Z,100916.63
2022-12-11T08:29:17.441Z,100920.03
2022-12-11T08:31:45.911Z,100919.03
2022-12-11T08:34:14.489Z,100919.78
2022-12-11T08:36:43.982Z,100918.63
2022-12-11T08:39:12.460Z,100917.94
2022-12-11T08:41:41.993Z,100921.56
2022-12-11T08:44:16.367Z,100917.25
2022-12-11T08:46:45.871Z,100919.38
2022-12-11T08:49:14.291Z,100916.75
2022-12-11T08:51:42.787Z,100910.31
2022-12-11T08:54:11.750Z,100914.44
2022-12-11T08:56:40.287Z,100914.72
2022-12-11T08:59:08.654Z,100910.06
2022-12-11T09:01:37.246Z,100906.28
2022-12-11T09:04:05.628Z,100911.53
2022-12-11T09:06:34.017Z,100910.22
2022-12-11T09:09:04.623Z,100909.41
2022-12-11T09:11:35.828Z,100903.75
2022-12-11T09:14:07.873Z,100908.09
2022-12-11T09:16:40.015Z,100908.72
2022-12-11T09:19:17.629Z,100899.00
2022-12-11T09:21:46.113Z,100902.06
2022-12-11T09:24:15.589Z,100900.63
2022-12-11T09:26:44.084Z,100898.69
2022-12-11T09:29:13.091Z,100903.75
2022-12-11T09:31:42.204Z,100898.38
2022-12-11T09:34:13.229Z,100911.81
2022-12-11T09:36:44.278Z,100901.66
2022-12-11T09:39:15.341Z,100894.41
2022-12-11T09:42:18.572Z,100897.84
2022-12-11T09:44:51.864Z,100904.31
2022-12-11T09:47:32.022Z,100902.59
2022-12-11T09:50:03.503Z,100893.31
2022-12-11T09:52:37.394Z,100896.16
2022-12-11T09:55:19.465Z,100902.03
2022-12-11T09:57:56.963Z,100898.63
2022-12-11T10:00:47.153Z,100899.25
2022-12-11T10:03:34.045Z,100897.91
2022-12-11T10:06:24.064Z,100881.63
2022-12-11T10:09:19.524Z,100882.88
2022-12-11T10:12:27.912Z,100875.28
2022-12-11T10:15:26.137Z,100871.53
2022-12-11T10:18:04.361Z,100875.19
2022-12-11T10:20:39.122Z,100887.66
2022-12-11T10:23:10.265Z,100884.56
2022-12-11T10:25:48.579Z,100895.25
2022-12-11T10:28:19.934Z,100889.22
2022-12-11T10:31:10.827Z,100886.56
2022-12-11T10:33:41.926Z,100891.88
2022-12-11T10:36:13.549Z,100884.59
2022-12-11T10:38:45.031Z,100886.69
2022-12-11T10:41:24.575Z,100880.13
2022-12-11T10:43:53.678Z,100892.03
2022-12-11T10:46:23.566Z,100885.88
2022-12-11T10:48:55.381Z,100889.78
2022-12-11T10:51:44.195Z,100872.13
2022-12-11T10:54:33.748Z,100872.41
2022-12-11T10:57:04.592Z,100867.63
2022-12-11T10:59:40.619Z,100868.88
2022-12-11T11:02:18.486Z,100868.72
2022-12-11T11:04:47.483Z,100859.31
2022-12-11T11:07:22.153Z,100869.84
2022-12-11T11:10:03.686Z,100866.19
2022-12-11T11:12:47.090Z,100863.94
2022-12-11T11:15:28.495Z,100856.25
2022-12-11T11:18:03.196Z,100855.53
2022-12-11T11:20:34.239Z,100854.69
2022-12-11T11:23:14.120Z,100847.81
2022-12-11T11:25:51.994Z,100842.34
2022-12-11T11:28:25.055Z,100847.25
2022-12-11T11:31:01.541Z,100841.78
2022-12-11T11:33:32.918Z,100852.59
2022-12-11T11:36:07.464Z,100851.75
2022-12-11T11:38:40.961Z,100847.25
2022-12-11T11:41:19.908Z,100854.28
2022-12-11T11:43:53.063Z,100852.16
2022-12-11T11:46:35.063Z,100835.72
2022-12-11T11:49:06.780Z,100844.16
2022-12-11T11:51:43.109Z,100836.97
2022-12-11T11:54:25.658Z,100847.50
2022-12-11T11:56:56.261Z,100846.25
2022-12-11T11:59:36.201Z,100841.19
2022-12-11T12:02:14.808Z,100840.47
2022-12-11T12:04:45.028Z,100837.97
2022-12-11T12:07:44.509Z,100835.59
2022-12-11T12:10:33.056Z,100836.44
2022-12-11T12:13:23.838Z,100827.75
2022-12-11T12:15:58.604Z,100829.44
2022-12-11T12:18:51.811Z,100817.75
2022-12-11T12:21:36.483Z,100806.81
2022-12-11T12:24:10.955Z,100820.16
2022-12-11T12:26:44.566Z,100816.94
2022-12-11T12:29:26.959Z,100822.53
2022-12-11T12:32:13.628Z,100821.28
2022-12-11T12:35:04.730Z,100813.56
2022-12-11T12:38:14.695Z,100810.75
2022-12-11T12:41:14.030Z,100819.72
2022-12-11T12:44:19.130Z,100817.50
2022-12-11T12:47:12.279Z,100819.00
2022-12-11T12:49:42.942Z,100817.75
2022-12-11T12:52:23.108Z,100819.31
2022-12-11T12:55:14.087Z,100810.47
2022-12-11T12:57:49.177Z,100815.53
2022-12-11T13:00:43.994Z,100807.78
2022-12-11T13:03:16.541Z,100815.50
2022-12-11T13:05:56.509Z,100811.84
2022-12-11T13:08:28.459Z,100807.34
2022-12-11T13:11:02.434Z,100805.56
2022-12-11T13:13:43.922Z,100804.44
2022-12-11T13:16:15.305Z,100809.75
2022-12-11T13:18:47.467Z,100805.16
2022-12-11T13:21:30.902Z,100806.13
2022-12-11T13:24:27.087Z,100804.84
2022-12-11T13:26:56.863Z,100806.13
2022-12-11T13:29:37.404Z,100807.38
2022-12-11T13:32:23.899Z,100814.53
2022-12-11T13:35:04.047Z,100812.44
2022-12-11T13:37:38.346Z,100817.09
2022-12-11T13:40:15.343Z,100824.09
2022-12-11T13:42:57.371Z,100815.81
2022-12-11T13:45:46.573Z,100815.53
2022-12-11T13:48:32.014Z,100823.81
2022-12-11T13:51:01.524Z,100819.88
2022-12-11T13:53:29.944Z,100824.38
2022-12-11T13:56:04.022Z,100823.66
2022-12-11T13:58:38.522Z,100827.59
2022-12-11T14:01:12.504Z,100832.22
2022-12-11T14:03:53.576Z,100829.28
2022-12-11T14:06:23.649Z,100830.84
2022-12-11T14:08:55.278Z,100832.22
2022-12-11T14:11:28.009Z,100836.81
2022-12-11T14:13:59.741Z,100842.13
2022-12-11T14:16:29.926Z,100831.41
2022-12-11T14:19:05.262Z,100837.28
2022-12-11T14:21:34.206Z,100837.22
2022-12-11T14:24:06.455Z,100830.34
2022-12-11T14:26:38.630Z,100826.88
2022-12-11T14:29:07.246Z,100831.47
2022-12-11T14:31:39.592Z,100831.66
2022-12-11T14:34:32.258Z,100827.59
2022-12-11T14:37:02.696Z,100833.22
2022-12-11T14:39:37.613Z,100842.72
2022-12-11T14:42:23.298Z,100845.69
2022-12-11T14:44:51.657Z,100845.97
2022-12-11T14:47:24.479Z,100847.06
2022-12-11T14:50:13.173Z,100844.25
2022-12-11T14:52:54.281Z,100848.22
2022-12-11T14:55:26.869Z,100847.06
2022-12-11T14:57:59.062Z,100845.53
2022-12-11T15:00:28.970Z,100842.44
2022-12-11T15:03:23.767Z,100849.31
2022-12-11T15:05:55.242Z,100849.81
2022-12-11T15:08:34.311Z,100852.63
2022-12-11T15:11:11.786Z,100850.50
2022-12-11T15:13:52.727Z,100856.00
2022-12-11T15:16:23.940Z,100858.84
2022-12-11T15:18:54.547Z,100860.13
2022-12-11T15:21:35.417Z,100859.81
2022-12-11T15:24:06.010Z,100858.72
2022-12-11T15:26:35.984Z,100857.69
2022-12-11T15:29:27.059Z,100860.22
2022-12-11T15:32:04.179Z,100852.34
2022-12-11T15:34:34.918Z,100854.19
2022-12-11T15:37:04.429Z,100849.84
2022-12-11T15:39:32.785Z,100855.59
2022-12-11T15:42:01.367Z,100863.16
2022-12-11T15:44:29.787Z,100864.66
2022-12-11T15:46:58.151Z,100864.69
2022-12-11T15:49:26.560Z,100869.19
2022-12-11T15:51:54.956Z,100868.34
2022-12-11T15:54:23.432Z,100867.91
2022-12-11T15:56:51.821Z,100861.56
2022-12-11T15:59:20.440Z,100860.09
2022-12-11T16:01:49.255Z,100869.50
2022-12-11T16:04:17.713Z,100864.88
2022-12-11T16:06:46.894Z,100871.53
2022-12-11T16:09:15.307Z,100872.50
2022-12-11T16:11:43.782Z,100874.50
2022-12-11T16:14:12.151Z,100873.94
2022-12-11T16:16:40.487Z,100872.22
2022-12-11T16:19:08.891Z,100877.69
2022-12-11T16:21:37.460Z,100866.50
2022-12-11T16:24:06.228Z,100868.38
2022-12-11T16:26:34.714Z,100865.72
2022-12-11T16:29:03.144Z,100861.41
2022-12-11T16:31:31.642Z,100867.84
2022-12-11T16:34:00.024Z,100863.94
2022-12-11T16:36:28.661Z,100856.88
2022-12-11T16:38:59.987Z,100855.94
2022-12-11T16:41:28.370Z,100853.97
2022-12-11T16:43:56.811Z,100862.44
2022-12-11T16:46:25.626Z,100855.03
2022-12-11T16:48:54.005Z,100858.41
2022-12-11T16:51:22.591Z,100861.38
2022-12-11T16:53:51.013Z,100864.03
2022-12-11T16:56:19.497Z,100865.28
2022-12-11T16:58:48.258Z,100862.75
2022-12-11T17:01:17.826Z,100857.16
2022-12-11T17:03:46.643Z,100856.88
2022-12-11T17:06:17.561Z,100861.84
2022-12-11T17:08:46.610Z,100853.72
2022-12-11T17:11:17.754Z,100847.09
2022-12-11T17:13:46.173Z,100835.22
2022-12-11T17:16:16.702Z,100837.81
2022-12-11T17:18:46.183Z,100843.66
2022-12-11T17:21:17.314Z,100850.94
2022-12-11T17:23:46.730Z,100846.91
2022-12-11T17:26:16.435Z,100851.25
2022-12-11T17:28:45.141Z,100856.97
2022-12-11T17:31:16.652Z,100856.72
2022-12-11T17:33:46.652Z,100854.84
2022-12-11T17:36:20.809Z,100849.66
2022-12-11T17:38:50.036Z,100840.47
2022-12-11T17:41:21.161Z,100839.31
2022-12-11T17:43:51.868Z,100841.66
2022-12-11T17:46:20.701Z,100834.22
2022-12-11T17:48:49.663Z,100834.22
2022-12-11T17:51:23.951Z,100837.88
2022-12-11T17:53:55.655Z,100847.66
2022-12-11T17:56:24.178Z,100849.66
2022-12-11T17:58:52.796Z,100845.84
2022-12-11T18:01:21.469Z,100842.31
2022-12-11T18:03:50.054Z,100855.22
2022-12-11T18:06:18.543Z,100848.06
2022-12-11T18:08:46.949Z,100842.84
2022-12-11T18:11:18.503Z,100844.66
2022-12-11T18:13:48.309Z,100848.03
2022-12-11T18:16:20.283Z,100844.78
2022-12-11T18:18:50.452Z,100848.72
2022-12-11T18:21:25.261Z,100851.00
2022-12-11T18:23:53.903Z,100854.69
2022-12-11T18:26:22.609Z,100854.38
2022-12-11T18:28:52.132Z,100847.81
2022-12-11T18:31:22.241Z,100845.09
2022-12-11T18:33:51.415Z,100841.50
2022-12-11T18:36:21.233Z,100847.31
2022-12-11T18:38:49.857Z,100840.78
2022-12-11T18:41:19.958Z,100839.72
2022-12-11T18:43:48.483Z,100846.00
2022-12-11T18:46:20.628Z,100841.22
2022-12-11T18:48:49.458Z,100834.72
2022-12-11T18:51:23.691Z,100834.84
2022-12-11T18:53:52.826Z,100830.66
2022-12-11T18:56:21.987Z,100830.53
2022-12-11T18:58:50.860Z,100837.78
2022-12-11T19:01:26.402Z,100834.72
2022-12-11T19:04:02.015Z,100842.00
2022-12-11T19:06:33.272Z,100833.97
2022-12-11T19:09:03.712Z,100835.66
2022-12-11T19:11:33.424Z,100833.00
2022-12-11T19:14:02.217Z,100841.56
2022-12-11T19:16:34.888Z,100836.63
2022-12-11T19:19:07.083Z,100833.13
2022-12-11T19:21:37.519Z,100830.00
2022-12-11T19:24:08.435Z,100846.22
2022-12-11T19:26:37.035Z,100837.34
2022-12-11T19:29:06.259Z,100842.66
2022-12-11T19:31:35.019Z,100841.03
2022-12-11T19:34:03.472Z,100844.56
2022-12-11T19:36:33.628Z,100841.53
2022-12-11T19:39:04.272Z,100835.84
2022-12-11T19:41:36.853Z,100840.22
2022-12-11T19:44:05.402Z,100831.41
2022-12-11T19:46:34.253Z,100837.81
2022-12-11T19:49:02.829Z,100840.78
2022-12-11T19:51:34.285Z,100840.78
2022-12-11T19:54:04.584Z,100839.75
2022-12-11T19:56:34.317Z,100845.97
2022-12-11T19:59:05.131Z,100853.47
2022-12-11T20:01:36.400Z,100848.16
2022-12-11T20:04:07.850Z,100850.63
2022-12-11T20:06:39.332Z,100843.16
2022-12-11T20:09:12.706Z,100842.91
2022-12-11T20:11:43.558Z,100842.97
2022-12-11T20:14:22.600Z,100852.00
2022-12-11T20:17:10.501Z,100842.91
2022-12-11T20:19:40.869Z,100849.41
2022-12-11T20:22:09.480Z,100843.44
2022-12-11T20:24:37.935Z,100844.03
2022-12-11T20:27:06.392Z,100856.19
2022-12-11T20:29:34.878Z,100855.03
2022-12-11T20:32:03.298Z,100852.44
2022-12-11T20:34:31.803Z,100859.78
2022-12-11T20:37:00.307Z,100857.00
2022-12-11T20:39:29.213Z,100861.47
2022-12-11T20:41:57.641Z,100861.47
2022-12-11T20:44:26.045Z,100862.34
2022-12-11T20:46:54.650Z,100858.00
2022-12-11T20:49:23.091Z,100862.06
2022-12-11T20:51:52.016Z,100864.66
2022-12-11T20:54:20.453Z,100859.09
2022-12-11T20:56:48.916Z,100860.53
2022-12-11T20:59:17.856Z,100862.81
2022-12-11T21:01:46.409Z,100859.97
2022-12-11T21:04:15.408Z,100860.75
2022-12-11T21:06:43.833Z,100867.47
2022-12-11T21:09:15.017Z,100864.41
2022-12-11T21:11:43.990Z,100871.84
2022-12-11T21:14:13.122Z,100868.84
2022-12-11T21:16:42.167Z,100869.09
2022-12-11T21:19:16.654Z,100873.91
2022-12-11T21:21:46.372Z,100875.47
2022-12-11T21:24:23.541Z,100874.22
2022-12-11T21:26:55.277Z,100879.00
2022-12-11T21:29:26.206Z,100884.81
2022-12-11T21:31:55.104Z,100882.75
2022-12-11T21:34:25.587Z,100868.97
2022-12-11T21:36:56.768Z,100873.31
2022-12-11T21:39:28.164Z,100879.22
2022-12-11T21:41:58.072Z,100870.44
2022-12-11T21:47:16.033Z,100871.41
2022-12-11T21:49:44.457Z,100876.13
2022-12-11T21:52:13.951Z,100871.69
2022-12-11T21:54:42.613Z,100866.63
2022-12-11T21:57:11.053Z,100872.81
2022-12-11T21:59:39.402Z,100872.38
2022-12-11T22:02:07.820Z,100875.69
2022-12-11T22:04:37.379Z,100868.63
2022-12-11T22:07:05.916Z,100878.69
2022-12-11T22:09:34.372Z,100880.06
2022-12-11T22:12:02.899Z,100885.19
2022-12-11T22:14:31.403Z,100885.97
2022-12-11T22:16:59.898Z,100888.09
2022-12-11T22:19:32.532Z,100889.84
2022-12-11T22:22:01.317Z,100890.97
2022-12-11T22:24:31.166Z,100893.38
2022-12-11T22:26:59.752Z,100895.09
2022-12-11T22:29:28.326Z,100895.38
2022-12-11T22:31:56.955Z,100891.34
2022-12-11T22:34:25.495Z,100893.75
2022-12-11T22:36:54.197Z,100893.44
2022-12-11T22:39:22.952Z,100902.66
2022-12-11T22:41:51.410Z,100894.97
2022-12-11T22:44:21.347Z,100901.75
2022-12-11T22:46:50.675Z,100895.78
2022-12-11T22:49:19.814Z,100904.41
2022-12-11T22:51:49.133Z,100896.75
2022-12-11T22:54:17.655Z,100895.91
2022-12-11T22:56:46.078Z,100885.09
2022-12-11T22:59:15.197Z,100885.75
2022-12-11T23:01:43.899Z,100882.09
2022-12-11T23:04:12.493Z,100884.63
2022-12-11T23:06:41.298Z,100894.50
2022-12-11T23:09:11.190Z,100889.69
2022-12-11T23:11:40.097Z,100892.91
2022-12-11T23:14:13.954Z,100886.06
2022-12-11T23:16:43.545Z,100888.31
2022-12-11T23:19:12.179Z,100890.16
2022-12-11T23:21:41.015Z,100894.59
2022-12-11T23:24:10.320Z,100893.91
2022-12-11T23:26:39.131Z,100891.22
2022-12-11T23:29:07.650Z,100891.34
2022-12-11T23:31:36.304Z,100884.34
2022-12-11T23:34:04.844Z,100885.16
2022-12-11T23:36:33.434Z,100894.84
2022-12-11T23:39:02.103Z,100889.22
2022-12-11T23:41:30.759Z,100892.97
2022-12-11T23:43:59.168Z,100894.34
2022-12-11T23:46:27.737Z,100902.41
2022-12-11T23:48:56.359Z,100897.91
2022-12-11T23:51:25.844Z,100911.44
2022-12-11T23:53:54.720Z,100912.13
2022-12-11T23:56:26.331Z,100900.50
2022-12-11T23:58:55.606Z,100900.69
